createdAt,value
2023-05-10T00:04:59.696Z,5.37
2023-05-10T00:10:02.232Z,5.43
2023-05-10T00:15:06.631Z,5.90
2023-05-10T00:20:10.522Z,6.80
2023-05-10T00:25:12.895Z,6.07
2023-05-10T00:30:15.578Z,4.93
2023-05-10T00:35:18.370Z,5.00
2023-05-10T00:40:20.816Z,4.93
2023-05-10T00:45:28.562Z,5.13
2023-05-10T00:50:32.359Z,5.33
2023-05-10T00:55:34.819Z,5.93
2023-05-10T01:00:38.768Z,5.47
2023-05-10T01:05:41.213Z,5.17
2023-05-10T01:10:44.533Z,4.53
2023-05-10T01:15:48.416Z,4.73
2023-05-10T01:21:10.352Z,5.80
2023-05-10T01:26:26.447Z,5.97
2023-05-10T01:31:31.857Z,5.73
2023-05-10T01:36:54.572Z,6.30
2023-05-10T01:42:12.769Z,6.10
2023-05-10T01:48:00.659Z,6.93
2023-05-10T01:53:04.199Z,6.23
2023-05-10T01:58:11.832Z,6.63
2023-05-10T02:03:15.279Z,6.03
2023-05-10T02:08:19.188Z,5.60
2023-05-10T02:13:23.133Z,5.67
2023-05-10T02:18:27.376Z,5.57
2023-05-10T02:23:31.213Z,5.90
2023-05-10T02:28:33.974Z,5.63
2023-05-10T02:33:40.874Z,6.07
2023-05-10T02:38:43.529Z,6.00
2023-05-10T02:43:46.870Z,5.83
2023-05-10T02:48:49.329Z,5.23
2023-05-10T02:53:52.424Z,6.20
2023-05-10T02:58:54.913Z,6.83
2023-05-10T03:03:57.502Z,6.00
2023-05-10T03:09:00.357Z,6.70
2023-05-10T03:14:23.805Z,6.90
2023-05-10T03:19:32.258Z,6.20
2023-05-10T03:24:36.006Z,6.70
2023-05-10T03:29:39.402Z,5.93
2023-05-10T03:34:46.180Z,6.67
2023-05-10T03:39:48.485Z,5.87
2023-05-10T03:44:51.363Z,5.60
2023-05-10T03:49:55.432Z,7.37
2023-05-10T03:54:58.506Z,6.23
2023-05-10T04:00:01.188Z,5.77
2023-05-10T04:05:09.090Z,5.30
2023-05-10T04:10:12.728Z,5.40
2023-05-10T04:15:15.208Z,5.80
2023-05-10T04:20:18.325Z,5.73
2023-05-10T04:25:20.888Z,5.40
2023-05-10T04:30:24.235Z,5.33
2023-05-10T04:35:27.796Z,6.13
2023-05-10T04:40:30.417Z,5.13
2023-05-10T04:45:32.888Z,4.97
2023-05-10T04:50:35.529Z,4.70
2023-05-10T04:55:39.650Z,4.73
2023-05-10T05:00:42.153Z,4.10
2023-05-10T05:05:45.908Z,4.47
2023-05-10T05:10:51.665Z,3.77
2023-05-10T05:15:54.848Z,3.93
2023-05-10T05:20:57.437Z,3.17
2023-05-10T05:26:00.599Z,3.23
2023-05-10T05:31:03.091Z,2.50
2023-05-10T05:36:06.744Z,2.47
2023-05-10T05:41:09.351Z,3.10
2023-05-10T05:46:12.192Z,3.13
2023-05-10T05:51:14.620Z,2.60
2023-05-10T05:56:17.026Z,2.40
2023-05-10T06:01:19.537Z,2.33
2023-05-10T06:06:22.124Z,4.67
2023-05-10T06:11:25.270Z,2.80
2023-05-10T06:16:28.050Z,2.30
2023-05-10T06:21:33.009Z,2.27
2023-05-10T06:26:35.433Z,2.47
2023-05-10T06:31:38.141Z,2.80
2023-05-10T06:36:40.748Z,2.27
2023-05-10T06:41:43.587Z,1.50
2023-05-10T06:46:46.452Z,1.80
2023-05-10T06:51:49.670Z,1.93
2023-05-10T06:56:52.162Z,1.60
2023-05-10T07:01:55.190Z,1.93
2023-05-10T07:06:59.047Z,1.97
2023-05-10T07:12:03.144Z,2.33
2023-05-10T07:17:07.372Z,1.73
2023-05-10T07:22:09.969Z,1.60
2023-05-10T07:27:13.009Z,1.83
2023-05-10T07:32:15.701Z,2.47
2023-05-10T07:37:21.430Z,2.43
2023-05-10T07:42:24.293Z,2.10
2023-05-10T07:47:27.402Z,1.83
2023-05-10T07:52:29.937Z,1.80
2023-05-10T07:57:32.476Z,1.93
2023-05-10T08:02:36.888Z,2.07
2023-05-10T08:07:39.617Z,2.80
2023-05-10T08:12:42.221Z,1.60
2023-05-10T08:17:44.709Z,1.50
2023-05-10T08:22:48.570Z,1.53
2023-05-10T08:27:52.274Z,2.17
2023-05-10T08:32:54.712Z,1.40
2023-05-10T08:37:57.118Z,1.50
2023-05-10T08:43:13.893Z,1.60
2023-05-10T08:48:16.908Z,1.30
2023-05-10T08:53:20.661Z,1.13
2023-05-10T08:58:23.805Z,1.30
2023-05-10T09:03:26.428Z,1.57
2023-05-10T09:08:29.248Z,2.30
2023-05-10T09:13:32.085Z,6.47
2023-05-10T09:18:34.831Z,4.10
2023-05-10T09:23:38.711Z,3.73
2023-05-10T09:28:54.381Z,2.00
2023-05-10T09:33:56.725Z,1.47
2023-05-10T09:38:59.195Z,2.00
2023-05-10T09:44:01.716Z,2.30
2023-05-10T09:49:04.296Z,1.67
2023-05-10T09:54:17.372Z,1.87
2023-05-10T09:59:20.128Z,1.80
2023-05-10T10:04:22.762Z,1.43
2023-05-10T10:09:25.973Z,1.97
2023-05-10T10:14:28.914Z,1.87
2023-05-10T10:19:32.086Z,2.00
2023-05-10T10:24:35.136Z,2.03
2023-05-10T10:30:27.540Z,1.50
2023-05-10T10:35:31.021Z,1.90
2023-05-10T10:40:35.286Z,2.50
2023-05-10T10:45:42.109Z,1.90
2023-05-10T10:50:47.076Z,1.60
2023-05-10T10:55:49.855Z,1.60
2023-05-10T11:01:13.177Z,1.60
2023-05-10T11:06:33.743Z,1.50
2023-05-10T11:11:37.485Z,1.60
2023-05-10T11:16:44.398Z,1.50
2023-05-10T11:22:15.057Z,1.37
2023-05-10T11:27:17.547Z,1.77
2023-05-10T11:32:22.589Z,3.77
2023-05-10T11:37:25.179Z,2.23
2023-05-10T11:42:29.469Z,2.03
2023-05-10T11:47:31.933Z,1.87
2023-05-10T11:52:40.716Z,1.63
2023-05-10T11:57:45.458Z,1.60
2023-05-10T12:02:48.630Z,1.90
2023-05-10T12:07:51.225Z,1.70
2023-05-10T12:12:54.277Z,1.70
2023-05-10T12:17:58.515Z,1.80
2023-05-10T12:23:04.490Z,1.40
2023-05-10T12:28:08.895Z,2.07
2023-05-10T12:33:13.597Z,1.90
2023-05-10T12:38:33.890Z,2.30
2023-05-10T12:43:37.489Z,2.47
2023-05-10T12:48:40.719Z,2.20
2023-05-10T12:53:45.681Z,1.60
2023-05-10T12:58:49.431Z,2.37
2023-05-10T13:03:52.285Z,2.10
2023-05-10T13:08:54.772Z,1.77
2023-05-10T13:13:57.265Z,2.07
2023-05-10T13:19:00.004Z,2.00
2023-05-10T13:24:02.915Z,1.90
2023-05-10T13:29:05.395Z,1.50
2023-05-10T13:34:07.797Z,1.97
2023-05-10T13:39:10.386Z,2.37
2023-05-10T13:44:14.605Z,1.80
2023-05-10T13:49:17.082Z,1.60
2023-05-10T13:54:21.298Z,2.57
2023-05-10T13:59:23.850Z,2.47
2023-05-10T14:04:26.714Z,2.23
2023-05-10T14:09:29.261Z,2.20
2023-05-10T14:14:31.891Z,1.77
2023-05-10T14:19:35.385Z,1.97
2023-05-10T14:24:37.830Z,2.30
2023-05-10T14:29:40.286Z,2.20
2023-05-10T14:34:42.653Z,2.20
2023-05-10T14:39:45.183Z,2.43
2023-05-10T14:44:47.715Z,1.60
2023-05-10T14:49:50.194Z,2.00
2023-05-10T14:54:52.750Z,2.13
2023-05-10T14:59:55.289Z,2.00
2023-05-10T15:04:59.628Z,3.07
2023-05-10T15:10:02.851Z,1.93
2023-05-10T15:15:08.127Z,2.13
2023-05-10T15:20:11.173Z,2.37
2023-05-10T15:25:15.788Z,2.47
2023-05-10T15:30:18.544Z,2.00
2023-05-10T15:35:21.018Z,2.60
2023-05-10T15:40:24.304Z,2.10
2023-05-10T15:45:27.883Z,2.57
2023-05-10T15:50:30.400Z,2.77
2023-05-10T15:55:35.445Z,3.03
2023-05-10T16:00:38.249Z,3.43
2023-05-10T16:05:40.755Z,3.83
2023-05-10T16:10:43.223Z,3.87
2023-05-10T16:15:45.815Z,3.93
2023-05-10T16:20:48.909Z,5.67
2023-05-10T16:25:52.382Z,3.43
2023-05-10T16:30:55.026Z,3.57
2023-05-10T16:35:57.614Z,3.47
2023-05-10T16:41:02.758Z,4.63
2023-05-10T16:46:10.977Z,7.83
2023-05-10T16:51:13.583Z,6.40
2023-05-10T16:56:18.134Z,5.30
2023-05-10T17:01:20.861Z,4.90
2023-05-10T17:06:23.383Z,3.63
2023-05-10T17:11:25.913Z,2.90
2023-05-10T17:16:29.505Z,3.17
2023-05-10T17:21:32.471Z,5.87
2023-05-10T17:26:35.235Z,6.00
2023-05-10T17:31:38.030Z,5.73
2023-05-10T17:36:40.946Z,3.97
2023-05-10T17:41:43.482Z,3.27
2023-05-10T17:46:46.045Z,4.53
2023-05-10T17:51:48.602Z,8.53
2023-05-10T17:56:53.926Z,7.87
2023-05-10T18:01:56.495Z,9.00
2023-05-10T18:07:01.933Z,10.87
2023-05-10T18:12:05.076Z,9.40
2023-05-10T18:17:07.829Z,8.63
2023-05-10T18:22:11.026Z,8.27
2023-05-10T18:27:14.026Z,8.13
2023-05-10T18:32:16.833Z,8.77
2023-05-10T18:37:19.904Z,7.20
2023-05-10T18:42:24.039Z,5.80
2023-05-10T18:47:27.727Z,5.17
2023-05-10T18:52:30.509Z,6.47
2023-05-10T18:57:33.114Z,4.30
2023-05-10T19:02:39.543Z,2.60
2023-05-10T19:07:44.149Z,2.63
2023-05-10T19:12:46.715Z,2.47
2023-05-10T19:17:50.680Z,2.10
2023-05-10T19:23:09.269Z,3.43
2023-05-10T19:28:14.449Z,3.65
2023-05-10T19:33:20.447Z,3.10
2023-05-10T19:38:23.994Z,3.27
2023-05-10T19:43:27.711Z,2.83
2023-05-10T19:48:30.846Z,4.10
2023-05-10T19:53:33.535Z,5.43
2023-05-10T19:58:39.164Z,3.77
2023-05-10T20:03:41.928Z,2.97
2023-05-10T20:08:44.561Z,3.40
2023-05-10T20:13:47.003Z,4.37
2023-05-10T20:18:49.659Z,3.20
2023-05-10T20:23:55.735Z,2.93
2023-05-10T20:28:58.463Z,2.60
2023-05-10T20:34:00.996Z,2.27
2023-05-10T20:39:03.634Z,2.23
2023-05-10T20:44:06.453Z,2.37
2023-05-10T20:49:09.533Z,2.53
2023-05-10T20:54:12.145Z,3.47
2023-05-10T20:59:14.533Z,3.63
2023-05-10T21:04:17.063Z,6.17
2023-05-10T21:09:19.565Z,5.17
2023-05-10T21:14:22.239Z,5.03
2023-05-10T21:19:24.856Z,4.20
2023-05-10T21:24:27.429Z,4.53
2023-05-10T21:29:29.823Z,6.63
2023-05-10T21:34:32.435Z,3.50
2023-05-10T21:39:34.902Z,12.63
2023-05-10T21:44:38.992Z,11.57
2023-05-10T21:49:41.586Z,9.70
2023-05-10T21:54:44.130Z,8.50
2023-05-10T21:59:46.722Z,9.67
2023-05-10T22:04:49.442Z,13.07
2023-05-10T22:09:52.015Z,10.60
2023-05-10T22:15:09.174Z,9.57
2023-05-10T22:20:12.896Z,11.70
2023-05-10T22:25:15.495Z,9.87
2023-05-10T22:30:18.443Z,8.47
2023-05-10T22:35:21.390Z,10.23
2023-05-10T22:40:23.898Z,7.60
2023-05-10T22:45:26.347Z,6.03
2023-05-10T22:50:30.604Z,7.00
2023-05-10T22:55:33.066Z,7.50
2023-05-10T23:00:35.659Z,6.83
2023-05-10T23:05:38.426Z,6.43
2023-05-10T23:10:41.524Z,7.50
2023-05-10T23:15:44.177Z,7.03
2023-05-10T23:20:46.608Z,6.97
2023-05-10T23:25:49.104Z,7.50
2023-05-10T23:30:57.937Z,6.37
2023-05-10T23:36:00.412Z,7.57
2023-05-10T23:41:02.909Z,7.13
2023-05-10T23:46:06.860Z,10.43
2023-05-10T23:51:09.415Z,10.23
2023-05-10T23:56:12.175Z,7.83
